sensor_id;sensor_type;location;lat;lon;timestamp;P1;durP1;ratioP1;P2;durP2;ratioP2
71048;SDS011;58704;53.358;-6.238;2022-08-19T00:01:50;14.10;;;2.83;;
71048;SDS011;58704;53.358;-6.238;2022-08-19T00:04:17;19.38;;;3.40;;
71048;SDS011;58704;53.358;-6.238;2022-08-19T00:06:44;17.77;;;3.30;;
71048;SDS011;58704;53.358;-6.238;2022-08-19T00:09:12;16.95;;;3.38;;
71048;SDS011;58704;53.358;-6.238;2022-08-19T00:11:40;21.45;;;3.22;;
71048;SDS011;58704;53.358;-6.238;2022-08-19T00:14:07;24.88;;;3.92;;
71048;SDS011;58704;53.358;-6.238;2022-08-19T00:16:34;12.93;;;3.20;;
71048;SDS011;58704;53.358;-6.238;2022-08-19T00:19:01;20.10;;;2.90;;
71048;SDS011;58704;53.358;-6.238;2022-08-19T00:21:26;19.88;;;3.47;;
71048;SDS011;58704;53.358;-6.238;2022-08-19T00:23:52;14.40;;;2.73;;
71048;SDS011;58704;53.358;-6.238;2022-08-19T00:26:19;21.42;;;3.40;;
71048;SDS011;58704;53.358;-6.238;2022-08-19T00:28:45;14.95;;;3.05;;
71048;SDS011;58704;53.358;-6.238;2022-08-19T00:31:11;14.80;;;2.70;;
71048;SDS011;58704;53.358;-6.238;2022-08-19T00:33:37;9.97;;;2.67;;
71048;SDS011;58704;53.358;-6.238;2022-08-19T00:36:05;21.42;;;3.72;;
71048;SDS011;58704;53.358;-6.238;2022-08-19T00:38:32;16.73;;;2.55;;
71048;SDS011;58704;53.358;-6.238;2022-08-19T00:41:03;13.73;;;2.60;;
71048;SDS011;58704;53.358;-6.238;2022-08-19T00:43:30;15.23;;;2.85;;
71048;SDS011;58704;53.358;-6.238;2022-08-19T00:45:55;14.57;;;2.50;;
71048;SDS011;58704;53.358;-6.238;2022-08-19T00:48:20;15.00;;;3.40;;
71048;SDS011;58704;53.358;-6.238;2022-08-19T00:50:47;14.60;;;2.93;;
71048;SDS011;58704;53.358;-6.238;2022-08-19T00:53:15;17.80;;;3.33;;
71048;SDS011;58704;53.358;-6.238;2022-08-19T00:55:44;21.55;;;2.75;;
71048;SDS011;58704;53.358;-6.238;2022-08-19T00:58:14;15.85;;;2.80;;
71048;SDS011;58704;53.358;-6.238;2022-08-19T01:00:41;18.50;;;3.72;;
71048;SDS011;58704;53.358;-6.238;2022-08-19T01:03:07;19.03;;;3.27;;
71048;SDS011;58704;53.358;-6.238;2022-08-19T01:05:34;21.02;;;3.65;;
71048;SDS011;58704;53.358;-6.238;2022-08-19T01:08:00;20.88;;;3.03;;
71048;SDS011;58704;53.358;-6.238;2022-08-19T01:10:29;15.73;;;3.07;;
71048;SDS011;58704;53.358;-6.238;2022-08-19T01:12:57;17.30;;;3.15;;
71048;SDS011;58704;53.358;-6.238;2022-08-19T01:15:26;20.40;;;3.25;;
71048;SDS011;58704;53.358;-6.238;2022-08-19T01:17:57;15.75;;;3.25;;
71048;SDS011;58704;53.358;-6.238;2022-08-19T01:20:25;22.20;;;3.10;;
71048;SDS011;58704;53.358;-6.238;2022-08-19T01:22:55;21.10;;;3.40;;
71048;SDS011;58704;53.358;-6.238;2022-08-19T01:25:24;27.55;;;3.65;;
71048;SDS011;58704;53.358;-6.238;2022-08-19T01:27:52;24.85;;;3.00;;
71048;SDS011;58704;53.358;-6.238;2022-08-19T01:30:23;19.80;;;2.80;;
71048;SDS011;58704;53.358;-6.238;2022-08-19T01:32:50;22.42;;;3.50;;
71048;SDS011;58704;53.358;-6.238;2022-08-19T01:35:16;20.05;;;3.38;;
71048;SDS011;58704;53.358;-6.238;2022-08-19T01:37:47;18.95;;;3.60;;
71048;SDS011;58704;53.358;-6.238;2022-08-19T01:40:15;19.92;;;3.13;;
71048;SDS011;58704;53.358;-6.238;2022-08-19T01:42:41;19.80;;;3.13;;
71048;SDS011;58704;53.358;-6.238;2022-08-19T01:45:07;13.68;;;2.85;;
71048;SDS011;58704;53.358;-6.238;2022-08-19T01:47:33;27.90;;;3.77;;
71048;SDS011;58704;53.358;-6.238;2022-08-19T01:50:00;19.75;;;3.35;;
71048;SDS011;58704;53.358;-6.238;2022-08-19T01:52:26;16.97;;;3.60;;
71048;SDS011;58704;53.358;-6.238;2022-08-19T01:54:52;22.50;;;3.03;;
71048;SDS011;58704;53.358;-6.238;2022-08-19T01:57:18;14.68;;;2.90;;
71048;SDS011;58704;53.358;-6.238;2022-08-19T01:59:43;18.87;;;3.00;;
71048;SDS011;58704;53.358;-6.238;2022-08-19T02:02:09;18.23;;;2.92;;
71048;SDS011;58704;53.358;-6.238;2022-08-19T02:04:35;18.17;;;2.90;;
71048;SDS011;58704;53.358;-6.238;2022-08-19T02:07:03;17.85;;;3.17;;
71048;SDS011;58704;53.358;-6.238;2022-08-19T02:09:28;26.83;;;4.00;;
71048;SDS011;58704;53.358;-6.238;2022-08-19T02:11:55;19.00;;;3.17;;
71048;SDS011;58704;53.358;-6.238;2022-08-19T02:14:21;18.67;;;3.33;;
71048;SDS011;58704;53.358;-6.238;2022-08-19T02:16:46;24.13;;;3.83;;
71048;SDS011;58704;53.358;-6.238;2022-08-19T02:19:12;20.70;;;3.33;;
71048;SDS011;58704;53.358;-6.238;2022-08-19T02:21:38;15.00;;;3.10;;
71048;SDS011;58704;53.358;-6.238;2022-08-19T02:24:03;18.03;;;3.13;;
71048;SDS011;58704;53.358;-6.238;2022-08-19T02:26:29;15.38;;;2.70;;
71048;SDS011;58704;53.358;-6.238;2022-08-19T02:28:54;19.43;;;3.40;;
71048;SDS011;58704;53.358;-6.238;2022-08-19T02:31:21;21.42;;;3.13;;
71048;SDS011;58704;53.358;-6.238;2022-08-19T02:33:47;23.10;;;3.60;;
71048;SDS011;58704;53.358;-6.238;2022-08-19T02:36:14;22.02;;;3.50;;
71048;SDS011;58704;53.358;-6.238;2022-08-19T02:38:40;33.28;;;4.13;;
71048;SDS011;58704;53.358;-6.238;2022-08-19T02:41:27;15.57;;;2.77;;
71048;SDS011;58704;53.358;-6.238;2022-08-19T02:43:53;16.45;;;2.65;;
71048;SDS011;58704;53.358;-6.238;2022-08-19T02:46:29;15.85;;;2.95;;
71048;SDS011;58704;53.358;-6.238;2022-08-19T02:48:57;22.30;;;3.57;;
71048;SDS011;58704;53.358;-6.238;2022-08-19T02:51:35;18.58;;;3.08;;
71048;SDS011;58704;53.358;-6.238;2022-08-19T02:54:06;21.95;;;3.17;;
71048;SDS011;58704;53.358;-6.238;2022-08-19T02:56:34;18.80;;;2.95;;
71048;SDS011;58704;53.358;-6.238;2022-08-19T02:59:00;19.33;;;2.90;;
71048;SDS011;58704;53.358;-6.238;2022-08-19T03:01:27;22.10;;;3.33;;
71048;SDS011;58704;53.358;-6.238;2022-08-19T03:03:57;21.77;;;2.85;;
71048;SDS011;58704;53.358;-6.238;2022-08-19T03:06:24;16.87;;;3.07;;
71048;SDS011;58704;53.358;-6.238;2022-08-19T03:08:50;16.30;;;2.38;;
71048;SDS011;58704;53.358;-6.238;2022-08-19T03:11:23;18.45;;;2.85;;
71048;SDS011;58704;53.358;-6.238;2022-08-19T03:13:50;18.57;;;2.60;;
71048;SDS011;58704;53.358;-6.238;2022-08-19T03:16:16;14.18;;;2.55;;
71048;SDS011;58704;53.358;-6.238;2022-08-19T03:18:42;19.20;;;3.20;;
71048;SDS011;58704;53.358;-6.238;2022-08-19T03:21:08;22.83;;;3.03;;
71048;SDS011;58704;53.358;-6.238;2022-08-19T03:23:35;18.65;;;3.05;;
71048;SDS011;58704;53.358;-6.238;2022-08-19T03:26:03;10.67;;;2.40;;
71048;SDS011;58704;53.358;-6.238;2022-08-19T03:28:30;16.30;;;2.90;;
71048;SDS011;58704;53.358;-6.238;2022-08-19T03:31:03;16.85;;;1.98;;
71048;SDS011;58704;53.358;-6.238;2022-08-19T03:33:31;10.80;;;1.77;;
71048;SDS011;58704;53.358;-6.238;2022-08-19T03:36:05;14.57;;;2.05;;
71048;SDS011;58704;53.358;-6.238;2022-08-19T03:38:42;13.35;;;2.45;;
71048;SDS011;58704;53.358;-6.238;2022-08-19T03:41:10;12.77;;;2.00;;
71048;SDS011;58704;53.358;-6.238;2022-08-19T03:43:40;12.45;;;2.40;;
71048;SDS011;58704;53.358;-6.238;2022-08-19T03:46:07;13.27;;;2.37;;
71048;SDS011;58704;53.358;-6.238;2022-08-19T03:48:37;13.45;;;2.30;;
71048;SDS011;58704;53.358;-6.238;2022-08-19T03:51:05;10.65;;;2.25;;
71048;SDS011;58704;53.358;-6.238;2022-08-19T03:53:31;8.73;;;1.95;;
71048;SDS011;58704;53.358;-6.238;2022-08-19T03:55:58;13.20;;;1.75;;
71048;SDS011;58704;53.358;-6.238;2022-08-19T03:58:28;9.90;;;2.43;;
71048;SDS011;58704;53.358;-6.238;2022-08-19T04:00:55;11.10;;;2.17;;
71048;SDS011;58704;53.358;-6.238;2022-08-19T04:03:21;9.85;;;1.90;;
71048;SDS011;58704;53.358;-6.238;2022-08-19T04:05:47;10.18;;;2.45;;
71048;SDS011;58704;53.358;-6.238;2022-08-19T04:08:13;13.13;;;1.93;;
71048;SDS011;58704;53.358;-6.238;2022-08-19T04:10:41;7.43;;;1.60;;
71048;SDS011;58704;53.358;-6.238;2022-08-19T04:13:06;11.47;;;2.23;;
71048;SDS011;58704;53.358;-6.238;2022-08-19T04:15:33;11.35;;;2.53;;
71048;SDS011;58704;53.358;-6.238;2022-08-19T04:18:06;14.02;;;2.47;;
71048;SDS011;58704;53.358;-6.238;2022-08-19T04:20:37;9.98;;;2.42;;
71048;SDS011;58704;53.358;-6.238;2022-08-19T04:23:04;11.68;;;2.22;;
71048;SDS011;58704;53.358;-6.238;2022-08-19T04:25:34;10.90;;;2.40;;
71048;SDS011;58704;53.358;-6.238;2022-08-19T04:28:04;11.38;;;1.70;;
71048;SDS011;58704;53.358;-6.238;2022-08-19T04:30:29;14.43;;;2.20;;
71048;SDS011;58704;53.358;-6.238;2022-08-19T04:32:55;20.50;;;2.20;;
71048;SDS011;58704;53.358;-6.238;2022-08-19T04:35:20;12.87;;;2.00;;
71048;SDS011;58704;53.358;-6.238;2022-08-19T04:37:45;14.52;;;2.00;;
71048;SDS011;58704;53.358;-6.238;2022-08-19T04:40:11;9.83;;;1.97;;
71048;SDS011;58704;53.358;-6.238;2022-08-19T04:42:55;16.08;;;1.95;;
71048;SDS011;58704;53.358;-6.238;2022-08-19T04:45:21;12.32;;;2.35;;
71048;SDS011;58704;53.358;-6.238;2022-08-19T04:47:47;9.33;;;2.27;;
71048;SDS011;58704;53.358;-6.238;2022-08-19T04:50:12;7.77;;;1.93;;
71048;SDS011;58704;53.358;-6.238;2022-08-19T04:52:38;12.07;;;2.38;;
71048;SDS011;58704;53.358;-6.238;2022-08-19T04:55:07;16.60;;;2.43;;
71048;SDS011;58704;53.358;-6.238;2022-08-19T04:57:33;11.98;;;1.80;;
71048;SDS011;58704;53.358;-6.238;2022-08-19T04:59:59;11.83;;;1.93;;
71048;SDS011;58704;53.358;-6.238;2022-08-19T05:02:24;12.88;;;2.20;;
71048;SDS011;58704;53.358;-6.238;2022-08-19T05:04:50;14.40;;;2.10;;
71048;SDS011;58704;53.358;-6.238;2022-08-19T05:07:16;11.30;;;2.50;;
71048;SDS011;58704;53.358;-6.238;2022-08-19T05:09:42;6.47;;;1.70;;
71048;SDS011;58704;53.358;-6.238;2022-08-19T05:12:07;10.82;;;2.03;;
71048;SDS011;58704;53.358;-6.238;2022-08-19T05:14:33;9.00;;;1.63;;
71048;SDS011;58704;53.358;-6.238;2022-08-19T05:17:00;7.97;;;1.67;;
71048;SDS011;58704;53.358;-6.238;2022-08-19T05:19:25;11.02;;;1.75;;
71048;SDS011;58704;53.358;-6.238;2022-08-19T05:22:09;11.60;;;2.05;;
71048;SDS011;58704;53.358;-6.238;2022-08-19T05:24:53;9.80;;;1.60;;
71048;SDS011;58704;53.358;-6.238;2022-08-19T05:27:19;10.50;;;1.90;;
71048;SDS011;58704;53.358;-6.238;2022-08-19T05:29:45;10.57;;;1.70;;
71048;SDS011;58704;53.358;-6.238;2022-08-19T05:32:10;12.23;;;1.70;;
71048;SDS011;58704;53.358;-6.238;2022-08-19T05:34:36;15.57;;;1.87;;
71048;SDS011;58704;53.358;-6.238;2022-08-19T05:37:03;8.38;;;1.65;;
71048;SDS011;58704;53.358;-6.238;2022-08-19T05:39:30;9.57;;;1.92;;
71048;SDS011;58704;53.358;-6.238;2022-08-19T05:41:58;8.50;;;1.77;;
71048;SDS011;58704;53.358;-6.238;2022-08-19T05:44:26;9.23;;;2.23;;
71048;SDS011;58704;53.358;-6.238;2022-08-19T05:46:55;6.18;;;1.73;;
71048;SDS011;58704;53.358;-6.238;2022-08-19T05:49:21;10.07;;;2.57;;
71048;SDS011;58704;53.358;-6.238;2022-08-19T05:51:47;10.70;;;2.00;;
71048;SDS011;58704;53.358;-6.238;2022-08-19T05:54:13;9.07;;;1.52;;
71048;SDS011;58704;53.358;-6.238;2022-08-19T05:56:39;10.47;;;1.90;;
71048;SDS011;58704;53.358;-6.238;2022-08-19T05:59:06;11.85;;;1.90;;
71048;SDS011;58704;53.358;-6.238;2022-08-19T06:01:34;6.35;;;1.60;;
71048;SDS011;58704;53.358;-6.238;2022-08-19T06:04:01;7.20;;;1.70;;
71048;SDS011;58704;53.358;-6.238;2022-08-19T06:06:27;7.35;;;1.30;;
71048;SDS011;58704;53.358;-6.238;2022-08-19T06:08:53;6.35;;;1.60;;
71048;SDS011;58704;53.358;-6.238;2022-08-19T06:11:22;8.70;;;1.67;;
71048;SDS011;58704;53.358;-6.238;2022-08-19T06:14:00;6.50;;;1.65;;
71048;SDS011;58704;53.358;-6.238;2022-08-19T06:16:30;9.30;;;1.80;;
71048;SDS011;58704;53.358;-6.238;2022-08-19T06:18:59;6.03;;;1.63;;
71048;SDS011;58704;53.358;-6.238;2022-08-19T06:21:26;4.63;;;1.77;;
71048;SDS011;58704;53.358;-6.238;2022-08-19T06:23:53;7.93;;;1.70;;
71048;SDS011;58704;53.358;-6.238;2022-08-19T06:26:20;11.23;;;2.30;;
71048;SDS011;58704;53.358;-6.238;2022-08-19T06:28:46;8.03;;;2.10;;
71048;SDS011;58704;53.358;-6.238;2022-08-19T06:31:13;10.20;;;2.03;;
71048;SDS011;58704;53.358;-6.238;2022-08-19T06:33:39;7.10;;;1.60;;
71048;SDS011;58704;53.358;-6.238;2022-08-19T06:36:05;9.32;;;1.38;;
71048;SDS011;58704;53.358;-6.238;2022-08-19T06:38:32;12.30;;;1.92;;
71048;SDS011;58704;53.358;-6.238;2022-08-19T06:41:02;6.77;;;1.67;;
71048;SDS011;58704;53.358;-6.238;2022-08-19T06:43:28;11.38;;;1.42;;
71048;SDS011;58704;53.358;-6.238;2022-08-19T06:45:54;17.17;;;1.70;;
71048;SDS011;58704;53.358;-6.238;2022-08-19T06:48:19;8.90;;;1.67;;
71048;SDS011;58704;53.358;-6.238;2022-08-19T06:50:44;7.37;;;1.73;;
71048;SDS011;58704;53.358;-6.238;2022-08-19T06:53:10;8.23;;;1.80;;
71048;SDS011;58704;53.358;-6.238;2022-08-19T06:55:36;10.20;;;1.50;;
71048;SDS011;58704;53.358;-6.238;2022-08-19T06:58:03;7.63;;;1.43;;
71048;SDS011;58704;53.358;-6.238;2022-08-19T07:00:29;7.00;;;1.17;;
71048;SDS011;58704;53.358;-6.238;2022-08-19T07:02:54;9.67;;;1.37;;
71048;SDS011;58704;53.358;-6.238;2022-08-19T07:05:20;10.30;;;1.47;;
71048;SDS011;58704;53.358;-6.238;2022-08-19T07:07:46;6.80;;;2.07;;
71048;SDS011;58704;53.358;-6.238;2022-08-19T07:10:11;10.47;;;1.93;;
71048;SDS011;58704;53.358;-6.238;2022-08-19T07:12:36;12.48;;;1.85;;
71048;SDS011;58704;53.358;-6.238;2022-08-19T07:15:05;12.60;;;1.33;;
71048;SDS011;58704;53.358;-6.238;2022-08-19T07:17:33;7.55;;;1.63;;
71048;SDS011;58704;53.358;-6.238;2022-08-19T07:20:03;7.60;;;1.60;;
71048;SDS011;58704;53.358;-6.238;2022-08-19T07:22:31;8.47;;;1.40;;
71048;SDS011;58704;53.358;-6.238;2022-08-19T07:24:58;5.50;;;1.48;;
71048;SDS011;58704;53.358;-6.238;2022-08-19T07:27:23;7.57;;;1.47;;
71048;SDS011;58704;53.358;-6.238;2022-08-19T07:29:49;7.68;;;1.48;;
71048;SDS011;58704;53.358;-6.238;2022-08-19T07:32:14;5.20;;;1.43;;
71048;SDS011;58704;53.358;-6.238;2022-08-19T07:34:40;5.63;;;1.20;;
71048;SDS011;58704;53.358;-6.238;2022-08-19T07:37:06;11.13;;;1.73;;
71048;SDS011;58704;53.358;-6.238;2022-08-19T07:39:33;8.35;;;1.50;;
71048;SDS011;58704;53.358;-6.238;2022-08-19T07:42:01;10.88;;;1.50;;
71048;SDS011;58704;53.358;-6.238;2022-08-19T07:44:28;10.80;;;1.67;;
71048;SDS011;58704;53.358;-6.238;2022-08-19T07:46:55;7.13;;;1.52;;
71048;SDS011;58704;53.358;-6.238;2022-08-19T07:49:22;5.88;;;1.50;;
71048;SDS011;58704;53.358;-6.238;2022-08-19T07:52:21;4.72;;;1.30;;
71048;SDS011;58704;53.358;-6.238;2022-08-19T07:54:41;7.85;;;1.75;;
71048;SDS011;58704;53.358;-6.238;2022-08-19T07:57:06;5.73;;;1.40;;
71048;SDS011;58704;53.358;-6.238;2022-08-19T07:59:33;6.45;;;1.50;;
71048;SDS011;58704;53.358;-6.238;2022-08-19T08:01:58;7.07;;;1.43;;
71048;SDS011;58704;53.358;-6.238;2022-08-19T08:04:25;6.95;;;1.80;;
71048;SDS011;58704;53.358;-6.238;2022-08-19T08:07:10;11.15;;;1.70;;
71048;SDS011;58704;53.358;-6.238;2022-08-19T08:09:54;7.47;;;1.60;;
71048;SDS011;58704;53.358;-6.238;2022-08-19T08:12:25;4.43;;;1.50;;
71048;SDS011;58704;53.358;-6.238;2022-08-19T08:14:58;7.25;;;1.88;;
71048;SDS011;58704;53.358;-6.238;2022-08-19T08:17:27;9.88;;;2.13;;
71048;SDS011;58704;53.358;-6.238;2022-08-19T08:19:53;7.40;;;1.83;;
71048;SDS011;58704;53.358;-6.238;2022-08-19T08:22:20;9.57;;;1.80;;
71048;SDS011;58704;53.358;-6.238;2022-08-19T08:25:05;8.25;;;1.60;;
71048;SDS011;58704;53.358;-6.238;2022-08-19T08:27:42;6.43;;;1.60;;
71048;SDS011;58704;53.358;-6.238;2022-08-19T08:30:14;9.00;;;1.63;;
71048;SDS011;58704;53.358;-6.238;2022-08-19T08:32:46;8.52;;;1.42;;
71048;SDS011;58704;53.358;-6.238;2022-08-19T08:35:14;7.57;;;1.80;;
71048;SDS011;58704;53.358;-6.238;2022-08-19T08:37:41;4.88;;;1.67;;
71048;SDS011;58704;53.358;-6.238;2022-08-19T08:40:56;6.27;;;1.60;;
71048;SDS011;58704;53.358;-6.238;2022-08-19T08:43:07;10.43;;;1.88;;
71048;SDS011;58704;53.358;-6.238;2022-08-19T08:45:53;10.80;;;2.08;;
71048;SDS011;58704;53.358;-6.238;2022-08-19T08:48:44;11.55;;;1.80;;
71048;SDS011;58704;53.358;-6.238;2022-08-19T08:51:15;5.93;;;1.75;;
71048;SDS011;58704;53.358;-6.238;2022-08-19T08:53:43;8.93;;;2.20;;
71048;SDS011;58704;53.358;-6.238;2022-08-19T08:56:10;6.13;;;1.58;;
71048;SDS011;58704;53.358;-6.238;2022-08-19T09:01:09;5.13;;;1.42;;
71048;SDS011;58704;53.358;-6.238;2022-08-19T09:03:36;7.35;;;1.38;;
71048;SDS011;58704;53.358;-6.238;2022-08-19T09:06:13;3.83;;;1.63;;
71048;SDS011;58704;53.358;-6.238;2022-08-19T09:17:06;6.72;;;1.50;;
71048;SDS011;58704;53.358;-6.238;2022-08-19T09:19:34;4.67;;;1.37;;
71048;SDS011;58704;53.358;-6.238;2022-08-19T09:22:00;4.97;;;1.30;;
71048;SDS011;58704;53.358;-6.238;2022-08-19T09:24:26;4.90;;;1.30;;
71048;SDS011;58704;53.358;-6.238;2022-08-19T09:26:52;10.40;;;1.50;;
71048;SDS011;58704;53.358;-6.238;2022-08-19T09:29:17;4.63;;;1.27;;
71048;SDS011;58704;53.358;-6.238;2022-08-19T09:31:43;6.07;;;1.50;;
71048;SDS011;58704;53.358;-6.238;2022-08-19T09:34:08;3.40;;;1.43;;
71048;SDS011;58704;53.358;-6.238;2022-08-19T09:36:34;8.40;;;1.60;;
71048;SDS011;58704;53.358;-6.238;2022-08-19T09:39:02;7.47;;;1.77;;
71048;SDS011;58704;53.358;-6.238;2022-08-19T09:41:28;7.10;;;1.70;;
71048;SDS011;58704;53.358;-6.238;2022-08-19T09:43:55;6.23;;;1.57;;
71048;SDS011;58704;53.358;-6.238;2022-08-19T09:46:22;5.35;;;1.70;;
71048;SDS011;58704;53.358;-6.238;2022-08-19T09:48:50;8.90;;;2.00;;
71048;SDS011;58704;53.358;-6.238;2022-08-19T09:51:18;4.38;;;1.50;;
71048;SDS011;58704;53.358;-6.238;2022-08-19T09:53:47;6.88;;;2.00;;
71048;SDS011;58704;53.358;-6.238;2022-08-19T09:56:17;5.53;;;1.30;;
71048;SDS011;58704;53.358;-6.238;2022-08-19T09:58:43;3.55;;;1.40;;
71048;SDS011;58704;53.358;-6.238;2022-08-19T10:01:11;7.80;;;1.60;;
71048;SDS011;58704;53.358;-6.238;2022-08-19T10:03:41;5.28;;;1.75;;
71048;SDS011;58704;53.358;-6.238;2022-08-19T10:06:06;5.90;;;1.97;;
71048;SDS011;58704;53.358;-6.238;2022-08-19T10:08:34;5.47;;;1.95;;
71048;SDS011;58704;53.358;-6.238;2022-08-19T10:11:01;5.73;;;1.43;;
71048;SDS011;58704;53.358;-6.238;2022-08-19T10:13:29;7.50;;;1.50;;
71048;SDS011;58704;53.358;-6.238;2022-08-19T10:16:01;4.65;;;1.58;;
71048;SDS011;58704;53.358;-6.238;2022-08-19T10:18:31;8.35;;;1.70;;
71048;SDS011;58704;53.358;-6.238;2022-08-19T10:21:04;7.25;;;1.63;;
71048;SDS011;58704;53.358;-6.238;2022-08-19T10:23:32;4.67;;;1.47;;
71048;SDS011;58704;53.358;-6.238;2022-08-19T10:25:59;6.78;;;1.52;;
71048;SDS011;58704;53.358;-6.238;2022-08-19T10:28:25;4.90;;;1.50;;
71048;SDS011;58704;53.358;-6.238;2022-08-19T10:30:50;7.53;;;1.65;;
71048;SDS011;58704;53.358;-6.238;2022-08-19T10:33:16;9.80;;;1.40;;
71048;SDS011;58704;53.358;-6.238;2022-08-19T10:35:41;6.13;;;1.80;;
71048;SDS011;58704;53.358;-6.238;2022-08-19T10:38:06;5.90;;;1.47;;
71048;SDS011;58704;53.358;-6.238;2022-08-19T10:40:32;4.33;;;1.63;;
71048;SDS011;58704;53.358;-6.238;2022-08-19T10:42:57;5.78;;;1.30;;
71048;SDS011;58704;53.358;-6.238;2022-08-19T10:45:23;11.80;;;1.77;;
71048;SDS011;58704;53.358;-6.238;2022-08-19T10:47:51;2.75;;;1.38;;
71048;SDS011;58704;53.358;-6.238;2022-08-19T10:50:17;4.43;;;1.00;;
71048;SDS011;58704;53.358;-6.238;2022-08-19T10:53:05;6.88;;;1.73;;
71048;SDS011;58704;53.358;-6.238;2022-08-19T10:55:33;6.35;;;1.70;;
71048;SDS011;58704;53.358;-6.238;2022-08-19T10:58:19;11.77;;;2.75;;
71048;SDS011;58704;53.358;-6.238;2022-08-19T11:00:56;7.93;;;2.00;;
71048;SDS011;58704;53.358;-6.238;2022-08-19T11:03:23;8.17;;;1.87;;
71048;SDS011;58704;53.358;-6.238;2022-08-19T11:06:03;8.98;;;2.13;;
71048;SDS011;58704;53.358;-6.238;2022-08-19T11:08:31;4.95;;;2.10;;
71048;SDS011;58704;53.358;-6.238;2022-08-19T11:10:58;10.52;;;2.13;;
71048;SDS011;58704;53.358;-6.238;2022-08-19T11:13:35;11.75;;;2.22;;
71048;SDS011;58704;53.358;-6.238;2022-08-19T11:16:04;10.43;;;2.10;;
71048;SDS011;58704;53.358;-6.238;2022-08-19T11:18:52;7.32;;;1.75;;
71048;SDS011;58704;53.358;-6.238;2022-08-19T11:21:22;7.80;;;2.00;;
71048;SDS011;58704;53.358;-6.238;2022-08-19T11:23:58;6.85;;;2.20;;
71048;SDS011;58704;53.358;-6.238;2022-08-19T11:26:25;9.05;;;2.20;;
71048;SDS011;58704;53.358;-6.238;2022-08-19T11:28:52;7.40;;;2.13;;
71048;SDS011;58704;53.358;-6.238;2022-08-19T11:31:20;7.07;;;1.80;;
71048;SDS011;58704;53.358;-6.238;2022-08-19T11:33:51;6.55;;;1.92;;
71048;SDS011;58704;53.358;-6.238;2022-08-19T11:36:17;6.30;;;2.10;;
71048;SDS011;58704;53.358;-6.238;2022-08-19T11:38:44;6.60;;;1.73;;
71048;SDS011;58704;53.358;-6.238;2022-08-19T11:41:10;10.60;;;2.00;;
71048;SDS011;58704;53.358;-6.238;2022-08-19T11:43:36;8.75;;;2.13;;
71048;SDS011;58704;53.358;-6.238;2022-08-19T11:46:05;5.23;;;2.07;;
71048;SDS011;58704;53.358;-6.238;2022-08-19T11:48:32;8.35;;;1.90;;
71048;SDS011;58704;53.358;-6.238;2022-08-19T11:50:57;4.75;;;1.60;;
71048;SDS011;58704;53.358;-6.238;2022-08-19T11:53:23;7.13;;;1.60;;
71048;SDS011;58704;53.358;-6.238;2022-08-19T11:55:49;7.10;;;1.65;;
71048;SDS011;58704;53.358;-6.238;2022-08-19T11:58:16;6.23;;;1.90;;
71048;SDS011;58704;53.358;-6.238;2022-08-19T12:00:42;8.98;;;2.28;;
71048;SDS011;58704;53.358;-6.238;2022-08-19T12:03:10;7.07;;;2.13;;
71048;SDS011;58704;53.358;-6.238;2022-08-19T12:05:36;5.88;;;2.10;;
71048;SDS011;58704;53.358;-6.238;2022-08-19T12:08:02;7.70;;;2.25;;
71048;SDS011;58704;53.358;-6.238;2022-08-19T12:10:27;9.10;;;2.10;;
71048;SDS011;58704;53.358;-6.238;2022-08-19T12:12:53;8.60;;;2.20;;
71048;SDS011;58704;53.358;-6.238;2022-08-19T12:15:18;8.10;;;2.23;;
71048;SDS011;58704;53.358;-6.238;2022-08-19T12:17:44;10.50;;;2.47;;
71048;SDS011;58704;53.358;-6.238;2022-08-19T12:20:10;11.57;;;2.40;;
71048;SDS011;58704;53.358;-6.238;2022-08-19T12:22:36;6.85;;;2.20;;
71048;SDS011;58704;53.358;-6.238;2022-08-19T12:25:03;6.03;;;1.97;;
71048;SDS011;58704;53.358;-6.238;2022-08-19T12:27:29;8.80;;;2.45;;
71048;SDS011;58704;53.358;-6.238;2022-08-19T12:29:55;7.15;;;1.90;;
71048;SDS011;58704;53.358;-6.238;2022-08-19T12:32:21;8.33;;;2.60;;
71048;SDS011;58704;53.358;-6.238;2022-08-19T12:34:46;6.35;;;2.20;;
71048;SDS011;58704;53.358;-6.238;2022-08-19T12:37:12;10.07;;;2.87;;
71048;SDS011;58704;53.358;-6.238;2022-08-19T12:39:39;8.90;;;2.10;;
71048;SDS011;58704;53.358;-6.238;2022-08-19T12:42:07;9.02;;;2.70;;
71048;SDS011;58704;53.358;-6.238;2022-08-19T12:44:33;7.30;;;2.53;;
71048;SDS011;58704;53.358;-6.238;2022-08-19T12:46:59;6.35;;;2.20;;
71048;SDS011;58704;53.358;-6.238;2022-08-19T12:49:26;13.25;;;2.58;;
71048;SDS011;58704;53.358;-6.238;2022-08-19T12:51:52;6.50;;;2.28;;
71048;SDS011;58704;53.358;-6.238;2022-08-19T12:54:18;9.13;;;2.30;;
71048;SDS011;58704;53.358;-6.238;2022-08-19T12:56:43;6.40;;;2.10;;
71048;SDS011;58704;53.358;-6.238;2022-08-19T12:59:09;17.50;;;2.65;;
71048;SDS011;58704;53.358;-6.238;2022-08-19T13:01:36;9.32;;;2.28;;
71048;SDS011;58704;53.358;-6.238;2022-08-19T13:04:01;7.83;;;2.30;;
71048;SDS011;58704;53.358;-6.238;2022-08-19T13:06:27;13.80;;;2.30;;
71048;SDS011;58704;53.358;-6.238;2022-08-19T13:08:53;6.95;;;2.50;;
71048;SDS011;58704;53.358;-6.238;2022-08-19T13:11:19;7.70;;;2.50;;
71048;SDS011;58704;53.358;-6.238;2022-08-19T13:13:46;7.77;;;2.60;;
71048;SDS011;58704;53.358;-6.238;2022-08-19T13:16:13;7.55;;;2.47;;
71048;SDS011;58704;53.358;-6.238;2022-08-19T13:18:40;6.80;;;2.45;;
71048;SDS011;58704;53.358;-6.238;2022-08-19T13:21:07;8.57;;;2.65;;
71048;SDS011;58704;53.358;-6.238;2022-08-19T13:23:34;9.45;;;2.50;;
71048;SDS011;58704;53.358;-6.238;2022-08-19T13:26:01;6.97;;;2.30;;
71048;SDS011;58704;53.358;-6.238;2022-08-19T13:28:28;7.95;;;2.20;;
71048;SDS011;58704;53.358;-6.238;2022-08-19T13:31:15;11.43;;;2.35;;
71048;SDS011;58704;53.358;-6.238;2022-08-19T13:34:00;6.47;;;2.47;;
71048;SDS011;58704;53.358;-6.238;2022-08-19T13:36:25;9.83;;;2.37;;
71048;SDS011;58704;53.358;-6.238;2022-08-19T13:38:51;7.47;;;2.30;;
71048;SDS011;58704;53.358;-6.238;2022-08-19T13:41:16;5.97;;;2.07;;
71048;SDS011;58704;53.358;-6.238;2022-08-19T13:43:43;8.82;;;2.90;;
71048;SDS011;58704;53.358;-6.238;2022-08-19T13:46:09;9.17;;;2.50;;
71048;SDS011;58704;53.358;-6.238;2022-08-19T13:48:38;9.23;;;2.40;;
71048;SDS011;58704;53.358;-6.238;2022-08-19T13:51:06;9.20;;;2.60;;
71048;SDS011;58704;53.358;-6.238;2022-08-19T13:53:34;6.05;;;2.65;;
71048;SDS011;58704;53.358;-6.238;2022-08-19T13:56:13;8.73;;;2.30;;
71048;SDS011;58704;53.358;-6.238;2022-08-19T13:58:43;7.67;;;2.43;;
71048;SDS011;58704;53.358;-6.238;2022-08-19T14:01:09;11.68;;;2.80;;
71048;SDS011;58704;53.358;-6.238;2022-08-19T14:03:35;4.40;;;2.00;;
71048;SDS011;58704;53.358;-6.238;2022-08-19T14:06:01;9.00;;;2.58;;
71048;SDS011;58704;53.358;-6.238;2022-08-19T14:08:26;8.50;;;1.70;;
71048;SDS011;58704;53.358;-6.238;2022-08-19T14:10:53;6.82;;;2.05;;
71048;SDS011;58704;53.358;-6.238;2022-08-19T14:13:20;6.22;;;2.50;;
71048;SDS011;58704;53.358;-6.238;2022-08-19T14:15:46;6.95;;;2.20;;
71048;SDS011;58704;53.358;-6.238;2022-08-19T14:18:12;7.27;;;1.93;;
71048;SDS011;58704;53.358;-6.238;2022-08-19T14:20:39;5.05;;;1.73;;
71048;SDS011;58704;53.358;-6.238;2022-08-19T14:23:05;6.47;;;1.80;;
71048;SDS011;58704;53.358;-6.238;2022-08-19T14:25:31;5.20;;;1.57;;
71048;SDS011;58704;53.358;-6.238;2022-08-19T14:27:57;4.10;;;1.38;;
71048;SDS011;58704;53.358;-6.238;2022-08-19T14:30:28;4.60;;;1.90;;
71048;SDS011;58704;53.358;-6.238;2022-08-19T14:32:58;5.45;;;1.70;;
71048;SDS011;58704;53.358;-6.238;2022-08-19T14:35:25;6.00;;;1.55;;
71048;SDS011;58704;53.358;-6.238;2022-08-19T14:37:52;5.00;;;1.73;;
71048;SDS011;58704;53.358;-6.238;2022-08-19T14:40:21;5.20;;;1.60;;
71048;SDS011;58704;53.358;-6.238;2022-08-19T14:42:54;4.77;;;1.40;;
71048;SDS011;58704;53.358;-6.238;2022-08-19T14:45:24;4.82;;;1.70;;